sensor_id;sensor_type;location;lat;lon;timestamp;P1;durP1;ratioP1;P2;durP2;ratioP2
33268;SDS011;19640;50.944;5.260;2023-03-16T00:00:12;11.07;;;5.20;;
33268;SDS011;19640;50.944;5.260;2023-03-16T00:02:41;7.20;;;5.15;;
33268;SDS011;19640;50.944;5.260;2023-03-16T00:05:08;7.80;;;4.80;;
33268;SDS011;19640;50.944;5.260;2023-03-16T00:07:35;5.38;;;4.35;;
33268;SDS011;19640;50.944;5.260;2023-03-16T00:10:01;7.70;;;5.53;;
33268;SDS011;19640;50.944;5.260;2023-03-16T00:12:27;9.90;;;5.38;;
33268;SDS011;19640;50.944;5.260;2023-03-16T00:14:53;11.02;;;7.13;;
33268;SDS011;19640;50.944;5.260;2023-03-16T00:17:19;8.27;;;4.70;;
33268;SDS011;19640;50.944;5.260;2023-03-16T00:19:46;5.82;;;4.63;;
33268;SDS011;19640;50.944;5.260;2023-03-16T00:22:13;10.07;;;5.53;;
33268;SDS011;19640;50.944;5.260;2023-03-16T00:24:40;6.18;;;4.55;;
33268;SDS011;19640;50.944;5.260;2023-03-16T00:27:10;5.47;;;4.82;;
33268;SDS011;19640;50.944;5.260;2023-03-16T00:29:42;6.03;;;5.43;;
33268;SDS011;19640;50.944;5.260;2023-03-16T00:32:19;9.35;;;5.10;;
33268;SDS011;19640;50.944;5.260;2023-03-16T00:34:46;6.15;;;5.03;;
33268;SDS011;19640;50.944;5.260;2023-03-16T00:37:13;7.22;;;4.70;;
33268;SDS011;19640;50.944;5.260;2023-03-16T00:39:41;6.30;;;4.05;;
33268;SDS011;19640;50.944;5.260;2023-03-16T00:42:08;6.30;;;4.57;;
33268;SDS011;19640;50.944;5.260;2023-03-16T00:44:35;11.10;;;4.65;;
33268;SDS011;19640;50.944;5.260;2023-03-16T00:47:02;5.80;;;4.50;;
33268;SDS011;19640;50.944;5.260;2023-03-16T00:49:29;5.65;;;4.25;;
33268;SDS011;19640;50.944;5.260;2023-03-16T00:51:59;7.63;;;4.65;;
33268;SDS011;19640;50.944;5.260;2023-03-16T00:54:29;6.18;;;4.57;;
33268;SDS011;19640;50.944;5.260;2023-03-16T00:56:57;5.78;;;4.45;;
33268;SDS011;19640;50.944;5.260;2023-03-16T00:59:23;6.03;;;4.78;;
33268;SDS011;19640;50.944;5.260;2023-03-16T01:01:50;11.88;;;5.05;;
33268;SDS011;19640;50.944;5.260;2023-03-16T01:04:17;5.45;;;4.20;;
33268;SDS011;19640;50.944;5.260;2023-03-16T01:06:43;7.97;;;4.57;;
33268;SDS011;19640;50.944;5.260;2023-03-16T01:09:09;7.30;;;4.03;;
33268;SDS011;19640;50.944;5.260;2023-03-16T01:11:36;5.32;;;3.88;;
33268;SDS011;19640;50.944;5.260;2023-03-16T01:14:02;5.57;;;4.15;;
33268;SDS011;19640;50.944;5.260;2023-03-16T01:16:28;8.70;;;3.63;;
33268;SDS011;19640;50.944;5.260;2023-03-16T01:18:54;5.03;;;4.00;;
33268;SDS011;19640;50.944;5.260;2023-03-16T01:21:22;7.63;;;3.83;;
33268;SDS011;19640;50.944;5.260;2023-03-16T01:23:48;5.75;;;3.65;;
33268;SDS011;19640;50.944;5.260;2023-03-16T01:26:14;4.43;;;4.03;;
33268;SDS011;19640;50.944;5.260;2023-03-16T01:28:42;5.28;;;3.90;;
33268;SDS011;19640;50.944;5.260;2023-03-16T01:31:09;4.88;;;3.30;;
33268;SDS011;19640;50.944;5.260;2023-03-16T01:33:36;3.88;;;3.40;;
33268;SDS011;19640;50.944;5.260;2023-03-16T01:36:09;4.80;;;3.40;;
33268;SDS011;19640;50.944;5.260;2023-03-16T01:38:37;6.07;;;3.58;;
33268;SDS011;19640;50.944;5.260;2023-03-16T01:41:04;4.43;;;3.40;;
33268;SDS011;19640;50.944;5.260;2023-03-16T01:43:30;4.20;;;3.00;;
33268;SDS011;19640;50.944;5.260;2023-03-16T01:48:41;3.70;;;3.10;;
33268;SDS011;19640;50.944;5.260;2023-03-16T01:53:55;4.32;;;2.88;;
33268;SDS011;19640;50.944;5.260;2023-03-16T01:56:25;4.43;;;3.28;;
33268;SDS011;19640;50.944;5.260;2023-03-16T01:58:58;6.50;;;3.28;;
33268;SDS011;19640;50.944;5.260;2023-03-16T02:01:26;4.65;;;3.10;;
33268;SDS011;19640;50.944;5.260;2023-03-16T02:04:01;4.38;;;2.95;;
33268;SDS011;19640;50.944;5.260;2023-03-16T02:06:50;6.15;;;3.20;;
33268;SDS011;19640;50.944;5.260;2023-03-16T02:09:18;5.97;;;2.95;;
33268;SDS011;19640;50.944;5.260;2023-03-16T02:11:46;4.47;;;2.40;;
33268;SDS011;19640;50.944;5.260;2023-03-16T02:14:12;6.28;;;3.15;;
33268;SDS011;19640;50.944;5.260;2023-03-16T02:16:38;3.15;;;2.67;;
33268;SDS011;19640;50.944;5.260;2023-03-16T02:19:06;3.03;;;2.65;;
33268;SDS011;19640;50.944;5.260;2023-03-16T02:21:45;4.18;;;2.75;;
33268;SDS011;19640;50.944;5.260;2023-03-16T02:24:32;4.40;;;3.00;;
33268;SDS011;19640;50.944;5.260;2023-03-16T02:26:58;3.85;;;2.42;;
33268;SDS011;19640;50.944;5.260;2023-03-16T02:32:10;4.13;;;2.70;;
33268;SDS011;19640;50.944;5.260;2023-03-16T02:34:36;3.78;;;2.83;;
33268;SDS011;19640;50.944;5.260;2023-03-16T02:37:03;5.43;;;3.10;;
33268;SDS011;19640;50.944;5.260;2023-03-16T02:39:30;6.93;;;3.28;;
33268;SDS011;19640;50.944;5.260;2023-03-16T02:41:55;4.10;;;2.78;;
33268;SDS011;19640;50.944;5.260;2023-03-16T02:44:22;3.90;;;2.83;;
33268;SDS011;19640;50.944;5.260;2023-03-16T02:46:55;3.80;;;2.88;;
33268;SDS011;19640;50.944;5.260;2023-03-16T02:49:25;3.70;;;2.60;;
33268;SDS011;19640;50.944;5.260;2023-03-16T02:51:56;5.45;;;2.78;;
33268;SDS011;19640;50.944;5.260;2023-03-16T02:54:22;3.53;;;2.08;;
33268;SDS011;19640;50.944;5.260;2023-03-16T02:56:48;5.85;;;2.40;;
33268;SDS011;19640;50.944;5.260;2023-03-16T02:59:15;7.00;;;2.55;;
33268;SDS011;19640;50.944;5.260;2023-03-16T03:01:40;3.25;;;2.30;;
33268;SDS011;19640;50.944;5.260;2023-03-16T03:04:06;5.13;;;2.90;;
33268;SDS011;19640;50.944;5.260;2023-03-16T03:06:32;2.80;;;2.00;;
33268;SDS011;19640;50.944;5.260;2023-03-16T03:08:58;6.80;;;2.30;;
33268;SDS011;19640;50.944;5.260;2023-03-16T03:11:26;3.15;;;2.50;;
33268;SDS011;19640;50.944;5.260;2023-03-16T03:13:52;3.22;;;2.33;;
33268;SDS011;19640;50.944;5.260;2023-03-16T03:16:18;6.25;;;2.60;;
33268;SDS011;19640;50.944;5.260;2023-03-16T03:18:44;3.85;;;2.55;;
33268;SDS011;19640;50.944;5.260;2023-03-16T03:21:09;3.80;;;2.45;;
33268;SDS011;19640;50.944;5.260;2023-03-16T03:23:35;8.05;;;2.30;;
33268;SDS011;19640;50.944;5.260;2023-03-16T03:26:01;5.45;;;2.58;;
33268;SDS011;19640;50.944;5.260;2023-03-16T03:28:28;5.13;;;2.50;;
33268;SDS011;19640;50.944;5.260;2023-03-16T03:30:54;5.72;;;2.55;;
33268;SDS011;19640;50.944;5.260;2023-03-16T03:33:21;8.23;;;2.75;;
33268;SDS011;19640;50.944;5.260;2023-03-16T03:35:52;2.78;;;2.03;;
33268;SDS011;19640;50.944;5.260;2023-03-16T03:40:44;4.82;;;2.75;;
33268;SDS011;19640;50.944;5.260;2023-03-16T03:43:09;6.85;;;3.05;;
33268;SDS011;19640;50.944;5.260;2023-03-16T03:45:35;6.13;;;2.63;;
33268;SDS011;19640;50.944;5.260;2023-03-16T03:48:00;4.53;;;2.42;;
33268;SDS011;19640;50.944;5.260;2023-03-16T03:50:26;5.65;;;2.60;;
33268;SDS011;19640;50.944;5.260;2023-03-16T03:52:52;4.40;;;2.65;;
33268;SDS011;19640;50.944;5.260;2023-03-16T03:55:17;3.80;;;2.53;;
33268;SDS011;19640;50.944;5.260;2023-03-16T03:57:43;5.20;;;2.70;;
33268;SDS011;19640;50.944;5.260;2023-03-16T04:00:09;5.80;;;2.65;;
33268;SDS011;19640;50.944;5.260;2023-03-16T04:02:36;4.50;;;2.90;;
33268;SDS011;19640;50.944;5.260;2023-03-16T04:05:03;3.50;;;2.50;;
33268;SDS011;19640;50.944;5.260;2023-03-16T04:07:29;4.18;;;2.75;;
33268;SDS011;19640;50.944;5.260;2023-03-16T04:09:54;7.07;;;3.28;;
33268;SDS011;19640;50.944;5.260;2023-03-16T04:12:20;3.50;;;2.88;;
33268;SDS011;19640;50.944;5.260;2023-03-16T04:14:46;4.18;;;2.60;;
33268;SDS011;19640;50.944;5.260;2023-03-16T04:17:11;3.90;;;2.60;;
33268;SDS011;19640;50.944;5.260;2023-03-16T04:19:37;3.35;;;2.60;;
33268;SDS011;19640;50.944;5.260;2023-03-16T04:22:03;7.07;;;2.83;;
33268;SDS011;19640;50.944;5.260;2023-03-16T04:24:29;5.18;;;3.03;;
33268;SDS011;19640;50.944;5.260;2023-03-16T04:26:58;3.85;;;2.95;;
33268;SDS011;19640;50.944;5.260;2023-03-16T04:29:25;5.03;;;3.03;;
33268;SDS011;19640;50.944;5.260;2023-03-16T04:31:52;5.97;;;3.25;;
33268;SDS011;19640;50.944;5.260;2023-03-16T04:34:18;6.22;;;3.42;;
33268;SDS011;19640;50.944;5.260;2023-03-16T04:36:49;4.85;;;3.33;;
33268;SDS011;19640;50.944;5.260;2023-03-16T04:39:16;7.05;;;2.88;;
33268;SDS011;19640;50.944;5.260;2023-03-16T04:41:42;5.30;;;2.55;;
33268;SDS011;19640;50.944;5.260;2023-03-16T04:44:08;6.03;;;3.15;;
33268;SDS011;19640;50.944;5.260;2023-03-16T04:46:34;5.10;;;3.10;;
33268;SDS011;19640;50.944;5.260;2023-03-16T04:49:00;4.63;;;2.70;;
33268;SDS011;19640;50.944;5.260;2023-03-16T04:51:28;6.13;;;3.45;;
33268;SDS011;19640;50.944;5.260;2023-03-16T04:53:54;6.45;;;3.45;;
33268;SDS011;19640;50.944;5.260;2023-03-16T04:56:20;5.50;;;3.17;;
33268;SDS011;19640;50.944;5.260;2023-03-16T04:58:46;5.22;;;3.60;;
33268;SDS011;19640;50.944;5.260;2023-03-16T05:01:14;6.10;;;3.20;;
33268;SDS011;19640;50.944;5.260;2023-03-16T05:03:40;4.55;;;3.28;;
33268;SDS011;19640;50.944;5.260;2023-03-16T05:06:05;4.90;;;3.15;;
33268;SDS011;19640;50.944;5.260;2023-03-16T05:08:31;4.38;;;3.20;;
33268;SDS011;19640;50.944;5.260;2023-03-16T05:10:57;4.82;;;3.10;;
33268;SDS011;19640;50.944;5.260;2023-03-16T05:13:23;4.68;;;3.10;;
33268;SDS011;19640;50.944;5.260;2023-03-16T05:15:49;5.10;;;3.03;;
33268;SDS011;19640;50.944;5.260;2023-03-16T05:18:18;3.83;;;2.90;;
33268;SDS011;19640;50.944;5.260;2023-03-16T05:20:44;6.85;;;3.55;;
33268;SDS011;19640;50.944;5.260;2023-03-16T05:23:10;5.25;;;3.05;;
33268;SDS011;19640;50.944;5.260;2023-03-16T05:25:35;11.80;;;3.92;;
33268;SDS011;19640;50.944;5.260;2023-03-16T05:28:02;4.32;;;2.70;;
33268;SDS011;19640;50.944;5.260;2023-03-16T05:30:29;4.05;;;2.97;;
33268;SDS011;19640;50.944;5.260;2023-03-16T05:32:55;3.55;;;2.85;;
33268;SDS011;19640;50.944;5.260;2023-03-16T05:35:22;2.95;;;2.45;;
33268;SDS011;19640;50.944;5.260;2023-03-16T05:37:48;6.35;;;2.70;;
33268;SDS011;19640;50.944;5.260;2023-03-16T05:40:14;6.03;;;3.17;;
33268;SDS011;19640;50.944;5.260;2023-03-16T05:42:48;8.38;;;3.17;;
33268;SDS011;19640;50.944;5.260;2023-03-16T05:45:18;6.65;;;3.45;;
33268;SDS011;19640;50.944;5.260;2023-03-16T05:47:44;3.53;;;2.70;;
33268;SDS011;19640;50.944;5.260;2023-03-16T05:50:13;4.45;;;2.63;;
33268;SDS011;19640;50.944;5.260;2023-03-16T05:52:41;6.35;;;2.90;;
33268;SDS011;19640;50.944;5.260;2023-03-16T05:55:08;9.15;;;2.50;;
33268;SDS011;19640;50.944;5.260;2023-03-16T05:57:36;8.07;;;3.13;;
33268;SDS011;19640;50.944;5.260;2023-03-16T06:00:03;7.78;;;3.10;;
33268;SDS011;19640;50.944;5.260;2023-03-16T06:02:42;6.63;;;2.88;;
33268;SDS011;19640;50.944;5.260;2023-03-16T06:05:12;4.30;;;2.75;;
33268;SDS011;19640;50.944;5.260;2023-03-16T06:07:39;8.50;;;3.17;;
33268;SDS011;19640;50.944;5.260;2023-03-16T06:10:05;6.60;;;2.70;;
33268;SDS011;19640;50.944;5.260;2023-03-16T06:12:32;5.35;;;2.58;;
33268;SDS011;19640;50.944;5.260;2023-03-16T06:14:58;5.72;;;2.40;;
33268;SDS011;19640;50.944;5.260;2023-03-16T06:17:25;5.78;;;2.88;;
33268;SDS011;19640;50.944;5.260;2023-03-16T06:19:50;3.92;;;2.47;;
33268;SDS011;19640;50.944;5.260;2023-03-16T06:22:16;4.60;;;2.20;;
33268;SDS011;19640;50.944;5.260;2023-03-16T06:24:42;4.97;;;1.92;;
33268;SDS011;19640;50.944;5.260;2023-03-16T06:27:08;2.80;;;2.13;;
33268;SDS011;19640;50.944;5.260;2023-03-16T06:29:34;6.40;;;1.90;;
33268;SDS011;19640;50.944;5.260;2023-03-16T06:32:00;4.70;;;3.08;;
33268;SDS011;19640;50.944;5.260;2023-03-16T06:34:26;3.58;;;2.40;;
33268;SDS011;19640;50.944;5.260;2023-03-16T06:36:51;4.18;;;2.47;;
33268;SDS011;19640;50.944;5.260;2023-03-16T06:39:17;7.07;;;2.40;;
33268;SDS011;19640;50.944;5.260;2023-03-16T06:41:43;4.80;;;2.63;;
33268;SDS011;19640;50.944;5.260;2023-03-16T06:44:09;6.85;;;2.13;;
33268;SDS011;19640;50.944;5.260;2023-03-16T06:46:35;5.95;;;2.33;;
33268;SDS011;19640;50.944;5.260;2023-03-16T06:49:01;3.42;;;2.40;;
33268;SDS011;19640;50.944;5.260;2023-03-16T06:51:28;2.85;;;1.98;;
33268;SDS011;19640;50.944;5.260;2023-03-16T06:53:54;6.32;;;2.35;;
33268;SDS011;19640;50.944;5.260;2023-03-16T06:56:19;3.97;;;1.75;;
33268;SDS011;19640;50.944;5.260;2023-03-16T06:58:45;4.50;;;2.08;;
33268;SDS011;19640;50.944;5.260;2023-03-16T07:01:11;5.25;;;2.10;;
33268;SDS011;19640;50.944;5.260;2023-03-16T07:03:37;5.28;;;2.00;;
33268;SDS011;19640;50.944;5.260;2023-03-16T07:06:02;3.20;;;1.73;;
33268;SDS011;19640;50.944;5.260;2023-03-16T07:08:29;3.28;;;1.70;;
33268;SDS011;19640;50.944;5.260;2023-03-16T07:10:55;3.90;;;1.83;;
33268;SDS011;19640;50.944;5.260;2023-03-16T07:13:21;4.45;;;1.50;;
33268;SDS011;19640;50.944;5.260;2023-03-16T07:15:51;3.08;;;1.92;;
33268;SDS011;19640;50.944;5.260;2023-03-16T07:18:17;3.78;;;1.60;;
33268;SDS011;19640;50.944;5.260;2023-03-16T07:20:44;3.92;;;1.77;;
33268;SDS011;19640;50.944;5.260;2023-03-16T07:23:10;4.70;;;1.70;;
33268;SDS011;19640;50.944;5.260;2023-03-16T07:25:36;2.13;;;1.70;;
33268;SDS011;19640;50.944;5.260;2023-03-16T07:28:02;5.53;;;1.70;;
33268;SDS011;19640;50.944;5.260;2023-03-16T07:30:28;1.70;;;1.30;;
33268;SDS011;19640;50.944;5.260;2023-03-16T07:32:54;3.92;;;1.60;;
33268;SDS011;19640;50.944;5.260;2023-03-16T07:35:20;3.92;;;1.65;;
33268;SDS011;19640;50.944;5.260;2023-03-16T07:37:46;5.88;;;1.90;;
33268;SDS011;19640;50.944;5.260;2023-03-16T07:40:12;1.85;;;1.38;;
33268;SDS011;19640;50.944;5.260;2023-03-16T07:42:38;2.42;;;1.70;;
33268;SDS011;19640;50.944;5.260;2023-03-16T07:45:05;4.55;;;2.00;;
33268;SDS011;19640;50.944;5.260;2023-03-16T07:47:32;7.03;;;2.00;;
33268;SDS011;19640;50.944;5.260;2023-03-16T07:49:58;6.22;;;1.60;;
33268;SDS011;19640;50.944;5.260;2023-03-16T07:52:24;2.28;;;1.65;;
33268;SDS011;19640;50.944;5.260;2023-03-16T07:54:49;4.60;;;1.80;;
33268;SDS011;19640;50.944;5.260;2023-03-16T07:57:15;6.60;;;1.58;;
33268;SDS011;19640;50.944;5.260;2023-03-16T07:59:41;3.90;;;2.40;;
33268;SDS011;19640;50.944;5.260;2023-03-16T08:02:15;2.30;;;1.40;;
33268;SDS011;19640;50.944;5.260;2023-03-16T08:04:43;2.78;;;1.75;;
33268;SDS011;19640;50.944;5.260;2023-03-16T08:07:09;3.33;;;1.63;;
33268;SDS011;19640;50.944;5.260;2023-03-16T08:09:36;2.67;;;1.63;;
33268;SDS011;19640;50.944;5.260;2023-03-16T08:12:02;3.40;;;1.60;;
33268;SDS011;19640;50.944;5.260;2023-03-16T08:14:30;4.50;;;1.90;;
33268;SDS011;19640;50.944;5.260;2023-03-16T08:17:01;2.25;;;1.33;;
33268;SDS011;19640;50.944;5.260;2023-03-16T08:19:28;6.68;;;1.65;;
33268;SDS011;19640;50.944;5.260;2023-03-16T08:21:54;2.47;;;1.83;;
33268;SDS011;19640;50.944;5.260;2023-03-16T08:24:21;4.22;;;1.70;;
33268;SDS011;19640;50.944;5.260;2023-03-16T08:26:47;4.30;;;1.63;;
33268;SDS011;19640;50.944;5.260;2023-03-16T08:29:13;3.40;;;1.80;;
33268;SDS011;19640;50.944;5.260;2023-03-16T08:31:38;3.88;;;1.80;;
33268;SDS011;19640;50.944;5.260;2023-03-16T08:34:06;4.63;;;1.77;;
33268;SDS011;19640;50.944;5.260;2023-03-16T08:36:32;3.22;;;1.70;;
33268;SDS011;19640;50.944;5.260;2023-03-16T08:38:58;4.03;;;1.90;;
33268;SDS011;19640;50.944;5.260;2023-03-16T08:41:25;4.35;;;1.85;;
33268;SDS011;19640;50.944;5.260;2023-03-16T08:43:54;4.72;;;1.98;;
33268;SDS011;19640;50.944;5.260;2023-03-16T08:46:22;4.18;;;1.70;;
33268;SDS011;19640;50.944;5.260;2023-03-16T08:48:48;4.78;;;1.98;;
33268;SDS011;19640;50.944;5.260;2023-03-16T08:51:14;5.05;;;2.00;;
33268;SDS011;19640;50.944;5.260;2023-03-16T08:53:41;3.67;;;2.10;;
33268;SDS011;19640;50.944;5.260;2023-03-16T08:56:09;4.63;;;1.95;;
33268;SDS011;19640;50.944;5.260;2023-03-16T08:58:36;4.65;;;1.67;;
33268;SDS011;19640;50.944;5.260;2023-03-16T09:01:03;2.33;;;1.75;;
33268;SDS011;19640;50.944;5.260;2023-03-16T09:03:30;4.25;;;2.10;;
33268;SDS011;19640;50.944;5.260;2023-03-16T09:06:00;3.60;;;1.45;;
33268;SDS011;19640;50.944;5.260;2023-03-16T09:08:27;2.42;;;1.70;;
33268;SDS011;19640;50.944;5.260;2023-03-16T09:11:03;4.47;;;1.77;;
33268;SDS011;19640;50.944;5.260;2023-03-16T09:13:31;3.92;;;1.85;;
33268;SDS011;19640;50.944;5.260;2023-03-16T09:15:58;5.90;;;2.00;;
33268;SDS011;19640;50.944;5.260;2023-03-16T09:18:24;2.65;;;1.63;;
33268;SDS011;19640;50.944;5.260;2023-03-16T09:20:51;3.00;;;1.73;;
33268;SDS011;19640;50.944;5.260;2023-03-16T09:23:21;3.03;;;1.70;;
33268;SDS011;19640;50.944;5.260;2023-03-16T09:25:47;3.55;;;1.77;;
33268;SDS011;19640;50.944;5.260;2023-03-16T09:28:13;4.22;;;1.83;;
33268;SDS011;19640;50.944;5.260;2023-03-16T09:30:38;4.75;;;2.20;;
33268;SDS011;19640;50.944;5.260;2023-03-16T09:33:04;1.95;;;1.48;;
33268;SDS011;19640;50.944;5.260;2023-03-16T09:35:30;2.35;;;1.48;;
33268;SDS011;19640;50.944;5.260;2023-03-16T09:37:56;5.40;;;1.70;;
33268;SDS011;19640;50.944;5.260;2023-03-16T09:40:26;4.82;;;1.63;;
33268;SDS011;19640;50.944;5.260;2023-03-16T09:45:43;1.88;;;1.23;;
33268;SDS011;19640;50.944;5.260;2023-03-16T09:48:38;6.75;;;2.65;;
33268;SDS011;19640;50.944;5.260;2023-03-16T09:51:06;2.17;;;1.40;;
33268;SDS011;19640;50.944;5.260;2023-03-16T09:53:38;3.75;;;1.45;;
33268;SDS011;19640;50.944;5.260;2023-03-16T09:56:11;4.22;;;1.52;;
33268;SDS011;19640;50.944;5.260;2023-03-16T09:58:51;1.83;;;1.20;;
33268;SDS011;19640;50.944;5.260;2023-03-16T10:06:47;2.83;;;1.48;;
33268;SDS011;19640;50.944;5.260;2023-03-16T10:09:23;2.20;;;1.30;;
33268;SDS011;19640;50.944;5.260;2023-03-16T10:11:57;3.60;;;1.30;;
33268;SDS011;19640;50.944;5.260;2023-03-16T10:17:18;1.52;;;1.00;;
33268;SDS011;19640;50.944;5.260;2023-03-16T10:22:41;4.82;;;1.17;;
33268;SDS011;19640;50.944;5.260;2023-03-16T10:27:41;2.40;;;0.88;;
33268;SDS011;19640;50.944;5.260;2023-03-16T10:30:20;2.38;;;0.90;;
33268;SDS011;19640;50.944;5.260;2023-03-16T10:32:46;2.63;;;0.80;;
33268;SDS011;19640;50.944;5.260;2023-03-16T10:35:19;5.78;;;0.95;;
33268;SDS011;19640;50.944;5.260;2023-03-16T10:37:50;4.68;;;1.05;;
33268;SDS011;19640;50.944;5.260;2023-03-16T10:40:17;1.65;;;0.90;;
33268;SDS011;19640;50.944;5.260;2023-03-16T10:42:45;1.90;;;0.73;;
33268;SDS011;19640;50.944;5.260;2023-03-16T10:45:25;1.45;;;0.60;;
33268;SDS011;19640;50.944;5.260;2023-03-16T10:48:14;2.30;;;0.85;;
33268;SDS011;19640;50.944;5.260;2023-03-16T10:50:49;1.60;;;0.70;;
33268;SDS011;19640;50.944;5.260;2023-03-16T10:53:30;2.70;;;0.63;;
33268;SDS011;19640;50.944;5.260;2023-03-16T10:56:07;4.22;;;1.17;;
33268;SDS011;19640;50.944;5.260;2023-03-16T11:01:22;2.55;;;0.77;;
33268;SDS011;19640;50.944;5.260;2023-03-16T11:03:51;1.33;;;0.65;;
33268;SDS011;19640;50.944;5.260;2023-03-16T11:06:24;2.35;;;0.90;;
33268;SDS011;19640;50.944;5.260;2023-03-16T11:08:54;3.55;;;1.17;;
33268;SDS011;19640;50.944;5.260;2023-03-16T11:11:38;3.63;;;0.98;;
33268;SDS011;19640;50.944;5.260;2023-03-16T11:14:10;6.72;;;0.95;;
33268;SDS011;19640;50.944;5.260;2023-03-16T11:16:38;2.60;;;1.02;;
33268;SDS011;19640;50.944;5.260;2023-03-16T11:24:31;1.90;;;0.80;;
33268;SDS011;19640;50.944;5.260;2023-03-16T11:27:32;3.85;;;0.75;;
33268;SDS011;19640;50.944;5.260;2023-03-16T11:32:51;1.42;;;0.77;;
33268;SDS011;19640;50.944;5.260;2023-03-16T11:38:18;1.27;;;0.73;;
33268;SDS011;19640;50.944;5.260;2023-03-16T11:41:18;1.98;;;0.55;;
33268;SDS011;19640;50.944;5.260;2023-03-16T11:43:55;2.53;;;0.73;;
33268;SDS011;19640;50.944;5.260;2023-03-16T11:51:43;2.38;;;0.63;;
33268;SDS011;19640;50.944;5.260;2023-03-16T12:05:52;2.15;;;0.50;;
33268;SDS011;19640;50.944;5.260;2023-03-16T12:08:21;1.45;;;0.70;;
33268;SDS011;19640;50.944;5.260;2023-03-16T12:11:04;1.55;;;0.73;;
33268;SDS011;19640;50.944;5.260;2023-03-16T12:13:49;1.65;;;0.77;;
33268;SDS011;19640;50.944;5.260;2023-03-16T12:22:03;2.60;;;0.80;;
33268;SDS011;19640;50.944;5.260;2023-03-16T12:24:49;1.10;;;0.50;;
33268;SDS011;19640;50.944;5.260;2023-03-16T12:27:20;1.75;;;0.55;;
33268;SDS011;19640;50.944;5.260;2023-03-16T12:34:52;1.50;;;0.60;;
33268;SDS011;19640;50.944;5.260;2023-03-16T12:40:33;2.35;;;0.50;;
33268;SDS011;19640;50.944;5.260;2023-03-16T12:48:30;0.57;;;0.32;;
33268;SDS011;19640;50.944;5.260;2023-03-16T12:51:18;1.33;;;0.50;;
33268;SDS011;19640;50.944;5.260;2023-03-16T12:56:36;1.75;;;0.50;;
33268;SDS011;19640;50.944;5.260;2023-03-16T12:59:14;5.90;;;0.52;;
33268;SDS011;19640;50.944;5.260;2023-03-16T13:01:50;2.10;;;0.60;;
33268;SDS011;19640;50.944;5.260;2023-03-16T13:04:31;4.18;;;0.60;;
33268;SDS011;19640;50.944;5.260;2023-03-16T13:07:06;1.02;;;0.50;;
33268;SDS011;19640;50.944;5.260;2023-03-16T13:09:39;1.38;;;0.35;;
33268;SDS011;19640;50.944;5.260;2023-03-16T13:12:06;2.00;;;0.47;;
33268;SDS011;19640;50.944;5.260;2023-03-16T13:14:38;1.42;;;0.40;;
33268;SDS011;19640;50.944;5.260;2023-03-16T13:19:41;1.35;;;0.50;;
33268;SDS011;19640;50.944;5.260;2023-03-16T13:24:50;2.33;;;0.70;;
33268;SDS011;19640;50.944;5.260;2023-03-16T13:27:22;1.75;;;0.60;;
33268;SDS011;19640;50.944;5.260;2023-03-16T13:29:56;1.08;;;0.47;;
33268;SDS011;19640;50.944;5.260;2023-03-16T13:32:24;2.83;;;0.45;;
33268;SDS011;19640;50.944;5.260;2023-03-16T13:34:56;1.35;;;0.45;;
33268;SDS011;19640;50.944;5.260;2023-03-16T13:37:24;1.27;;;0.47;;
33268;SDS011;19640;50.944;5.260;2023-03-16T13:39:59;2.00;;;0.63;;
33268;SDS011;19640;50.944;5.260;2023-03-16T13:42:32;2.20;;;0.43;;
33268;SDS011;19640;50.944;5.260;2023-03-16T13:44:58;0.80;;;0.45;;
33268;SDS011;19640;50.944;5.260;2023-03-16T13:47:35;2.55;;;0.40;;
33268;SDS011;19640;50.944;5.260;2023-03-16T13:50:00;1.10;;;0.50;;
33268;SDS011;19640;50.944;5.260;2023-03-16T13:52:27;0.70;;;0.40;;
33268;SDS011;19640;50.944;5.260;2023-03-16T13:54:57;3.03;;;0.70;;
33268;SDS011;19640;50.944;5.260;2023-03-16T13:57:29;1.23;;;0.40;;
33268;SDS011;19640;50.944;5.260;2023-03-16T14:00:03;1.52;;;0.40;;
33268;SDS011;19640;50.944;5.260;2023-03-16T14:02:43;1.40;;;0.60;;
33268;SDS011;19640;50.944;5.260;2023-03-16T14:05:15;1.08;;;0.60;;
33268;SDS011;19640;50.944;5.260;2023-03-16T14:07:45;1.00;;;0.50;;
33268;SDS011;19640;50.944;5.260;2023-03-16T14:10:12;3.33;;;0.70;;
33268;SDS011;19640;50.944;5.260;2023-03-16T14:12:54;1.65;;;0.60;;
33268;SDS011;19640;50.944;5.260;2023-03-16T14:15:31;1.05;;;0.40;;
33268;SDS011;19640;50.944;5.260;2023-03-16T14:18:07;0.50;;;0.40;;
33268;SDS011;19640;50.944;5.260;2023-03-16T14:20:38;0.65;;;0.40;;
33268;SDS011;19640;50.944;5.260;2023-03-16T14:23:04;0.70;;;0.50;;
33268;SDS011;19640;50.944;5.260;2023-03-16T14:25:43;2.00;;;0.60;;
33268;SDS011;19640;50.944;5.260;2023-03-16T14:28:12;1.20;;;0.30;;
33268;SDS011;19640;50.944;5.260;2023-03-16T14:30:48;0.90;;;0.43;;
33268;SDS011;19640;50.944;5.260;2023-03-16T14:33:34;1.48;;;0.60;;
33268;SDS011;19640;50.944;5.260;2023-03-16T14:36:14;1.08;;;0.40;;
33268;SDS011;19640;50.944;5.260;2023-03-16T14:38:42;2.45;;;0.40;;
33268;SDS011;19640;50.944;5.260;2023-03-16T14:41:25;0.85;;;0.40;;
33268;SDS011;19640;50.944;5.260;2023-03-16T14:43:57;2.30;;;0.40;;
33268;SDS011;19640;50.944;5.260;2023-03-16T14:46:25;1.08;;;0.40;;
33268;SDS011;19640;50.944;5.260;2023-03-16T14:49:39;0.98;;;0.45;;
33268;SDS011;19640;50.944;5.260;2023-03-16T14:51:48;1.75;;;0.30;;
33268;SDS011;19640;50.944;5.260;2023-03-16T14:54:17;0.90;;;0.50;;
33268;SDS011;19640;50.944;5.260;2023-03-16T14:56:49;1.05;;;0.47;;
33268;SDS011;19640;50.944;5.260;2023-03-16T14:59:17;0.98;;;0.40;;
33268;SDS011;19640;50.944;5.260;2023-03-16T15:01:43;2.33;;;0.77;;
33268;SDS011;19640;50.944;5.260;2023-03-16T15:04:14;0.57;;;0.30;;
33268;SDS011;19640;50.944;5.260;2023-03-16T15:06:43;0.90;;;0.40;;
33268;SDS011;19640;50.944;5.260;2023-03-16T15:09:26;0.85;;;0.40;;
33268;SDS011;19640;50.944;5.260;2023-03-16T15:12:02;1.38;;;0.30;;
33268;SDS011;19640;50.944;5.260;2023-03-16T15:14:28;0.63;;;0.40;;
33268;SDS011;19640;50.944;5.260;2023-03-16T15:17:12;0.85;;;0.30;;
33268;SDS011;19640;50.944;5.260;2023-03-16T15:19:37;0.80;;;0.38;;
33268;SDS011;19640;50.944;5.260;2023-03-16T15:22:03;2.08;;;0.50;;
33268;SDS011;19640;50.944;5.260;2023-03-16T15:24:30;0.68;;;0.30;;
33268;SDS011;19640;50.944;5.260;2023-03-16T15:26:57;2.05;;;0.73;;
33268;SDS011;19640;50.944;5.260;2023-03-16T15:29:23;0.98;;;0.35;;
33268;SDS011;19640;50.944;5.260;2023-03-16T15:31:49;1.02;;;0.40;;
33268;SDS011;19640;50.944;5.260;2023-03-16T15:34:14;0.60;;;0.50;;
33268;SDS011;19640;50.944;5.260;2023-03-16T15:36:41;1.05;;;0.38;;
33268;SDS011;19640;50.944;5.260;2023-03-16T15:39:11;0.77;;;0.40;;
33268;SDS011;19640;50.944;5.260;2023-03-16T15:41:45;1.42;;;0.52;;
33268;SDS011;19640;50.944;5.260;2023-03-16T15:44:11;1.38;;;0.45;;
33268;SDS011;19640;50.944;5.260;2023-03-16T15:46:37;1.55;;;0.47;;
33268;SDS011;19640;50.944;5.260;2023-03-16T15:49:03;0.50;;;0.30;;
33268;SDS011;19640;50.944;5.260;2023-03-16T15:51:29;0.57;;;0.30;;
33268;SDS011;19640;50.944;5.260;2023-03-16T15:54:00;0.30;;;0.28;;
33268;SDS011;19640;50.944;5.260;2023-03-16T15:56:28;0.98;;;0.30;;
33268;SDS011;19640;50.944;5.260;2023-03-16T15:59:00;0.60;;;0.30;;
33268;SDS011;19640;50.944;5.260;2023-03-16T16:01:30;1.40;;;0.40;;
33268;SDS011;19640;50.944;5.260;2023-03-16T16:04:03;1.00;;;0.40;;
33268;SDS011;19640;50.944;5.260;2023-03-16T16:06:31;1.00;;;0.60;;
33268;SDS011;19640;50.944;5.260;2023-03-16T16:08:56;1.33;;;0.50;;
33268;SDS011;19640;50.944;5.260;2023-03-16T16:11:23;2.17;;;0.70;;
33268;SDS011;19640;50.944;5.260;2023-03-16T16:13:51;1.20;;;0.70;;
33268;SDS011;19640;50.944;5.260;2023-03-16T16:16:21;1.05;;;0.60;;
33268;SDS011;19640;50.944;5.260;2023-03-16T16:18:47;1.20;;;0.70;;
33268;SDS011;19640;50.944;5.260;2023-03-16T16:21:17;3.97;;;0.85;;
33268;SDS011;19640;50.944;5.260;2023-03-16T16:26:25;2.92;;;1.00;;